createdAt,value
2022-08-27T00:01:22.240Z,99542.91
2022-08-27T00:03:50.262Z,99536.69
2022-08-27T00:06:19.359Z,99537.75
2022-08-27T00:08:47.663Z,99539.00
2022-08-27T00:11:15.518Z,99542.06
2022-08-27T00:13:42.498Z,99537.25
2022-08-27T00:16:12.401Z,99534.38
2022-08-27T00:18:40.379Z,99539.25
2022-08-27T00:21:08.614Z,99536.06
2022-08-27T00:23:36.941Z,99532.66
2022-08-27T00:26:05.613Z,99534.81
2022-08-27T00:28:33.704Z,99531.91
2022-08-27T00:31:01.428Z,99533.75
2022-08-27T00:33:30.668Z,99528.59
2022-08-27T00:35:58.380Z,99533.91
2022-08-27T00:38:25.612Z,99524.38
2022-08-27T00:40:54.106Z,99533.03
2022-08-27T00:43:25.544Z,99533.13
2022-08-27T00:45:58.857Z,99532.56
2022-08-27T00:48:30.486Z,99537.53
2022-08-27T00:50:57.778Z,99534.88
2022-08-27T00:53:29.732Z,99540.00
2022-08-27T00:56:07.260Z,99528.91
2022-08-27T00:58:37.912Z,99535.00
2022-08-27T01:01:07.946Z,99526.50
2022-08-27T01:03:35.350Z,99534.59
2022-08-27T01:06:05.781Z,99529.97
2022-08-27T01:08:38.807Z,99541.25
2022-08-27T01:11:06.471Z,99544.31
2022-08-27T01:13:58.696Z,99536.16
2022-08-27T01:16:25.566Z,99544.78
2022-08-27T01:18:54.510Z,99532.41
2022-08-27T01:21:47.403Z,99540.31
2022-08-27T01:24:36.133Z,99543.25
2022-08-27T01:27:08.074Z,99530.81
2022-08-27T01:29:41.235Z,99545.66
2022-08-27T01:32:20.797Z,99547.31
2022-08-27T01:34:48.518Z,99539.88
2022-08-27T01:37:17.297Z,99548.63
2022-08-27T01:39:51.982Z,99552.25
2022-08-27T01:42:22.067Z,99546.78
2022-08-27T01:44:55.831Z,99550.03
2022-08-27T01:47:30.778Z,99546.28
2022-08-27T01:49:59.482Z,99545.47
2022-08-27T01:52:29.437Z,99548.50
2022-08-27T01:54:56.405Z,99560.47
2022-08-27T01:57:26.118Z,99547.72
2022-08-27T01:59:57.050Z,99554.28
2022-08-27T02:02:24.519Z,99550.13
2022-08-27T02:04:52.188Z,99549.84
2022-08-27T02:07:19.490Z,99552.38
2022-08-27T02:09:46.485Z,99557.34
2022-08-27T02:12:13.734Z,99556.41
2022-08-27T02:14:40.689Z,99557.41
2022-08-27T02:17:07.699Z,99557.13
2022-08-27T02:19:35.020Z,99560.38
2022-08-27T02:22:02.028Z,99556.81
2022-08-27T02:24:29.363Z,99556.09
2022-08-27T02:26:57.375Z,99559.75
2022-08-27T02:29:25.524Z,99559.03
2022-08-27T02:31:52.575Z,99558.91
2022-08-27T02:34:19.542Z,99550.81
2022-08-27T02:36:47.073Z,99550.09
2022-08-27T02:39:14.111Z,99557.00
2022-08-27T02:41:41.069Z,99553.22
2022-08-27T02:44:10.723Z,99560.09
2022-08-27T02:46:39.554Z,99549.47
2022-08-27T02:49:06.612Z,99554.25
2022-08-27T02:51:34.096Z,99552.63
2022-08-27T02:54:02.493Z,99554.53
2022-08-27T02:56:30.324Z,99551.81
2022-08-27T02:58:57.942Z,99555.97
2022-08-27T03:01:25.094Z,99562.16
2022-08-27T03:03:52.158Z,99564.47
2022-08-27T03:06:19.142Z,99559.72
2022-08-27T03:08:52.268Z,99563.34
2022-08-27T03:11:23.650Z,99559.91
2022-08-27T03:13:51.802Z,99562.91
2022-08-27T03:16:19.880Z,99567.25
2022-08-27T03:18:47.005Z,99566.69
2022-08-27T03:21:25.914Z,99570.94
2022-08-27T03:23:53.140Z,99565.84
2022-08-27T03:26:20.479Z,99565.41
2022-08-27T03:28:47.494Z,99562.75
2022-08-27T03:31:27.312Z,99560.94
2022-08-27T03:33:59.679Z,99559.00
2022-08-27T03:36:31.402Z,99564.47
2022-08-27T03:38:58.621Z,99569.88
2022-08-27T03:41:39.914Z,99564.31
2022-08-27T03:44:21.969Z,99558.84
2022-08-27T03:46:50.515Z,99570.09
2022-08-27T03:49:20.693Z,99561.91
2022-08-27T03:51:50.711Z,99568.78
2022-08-27T03:54:17.973Z,99567.22
2022-08-27T03:56:45.123Z,99566.69
2022-08-27T03:59:12.273Z,99566.22
2022-08-27T04:01:39.260Z,99570.03
2022-08-27T04:04:06.940Z,99574.69
2022-08-27T04:06:35.404Z,99568.88
2022-08-27T04:09:03.889Z,99576.75
2022-08-27T04:11:33.726Z,99569.34
2022-08-27T04:14:01.149Z,99570.41
2022-08-27T04:16:28.150Z,99572.84
2022-08-27T04:18:55.615Z,99579.13
2022-08-27T04:21:25.787Z,99564.84
2022-08-27T04:23:53.124Z,99560.19
2022-08-27T04:26:20.536Z,99566.97
2022-08-27T04:28:48.835Z,99560.41
2022-08-27T04:31:17.125Z,99573.69
2022-08-27T04:33:51.058Z,99570.59
2022-08-27T04:36:18.777Z,99577.22
2022-08-27T04:38:45.964Z,99578.38
2022-08-27T04:41:27.569Z,99576.19
2022-08-27T04:43:59.701Z,99573.16
2022-08-27T04:46:31.218Z,99574.06
2022-08-27T04:49:00.286Z,99575.00
2022-08-27T04:51:29.104Z,99576.06
2022-08-27T04:53:57.483Z,99577.03
2022-08-27T04:56:28.438Z,99587.63
2022-08-27T04:58:56.182Z,99578.78
2022-08-27T05:01:27.068Z,99584.16
2022-08-27T05:03:55.463Z,99576.16
2022-08-27T05:06:24.643Z,99573.56
2022-08-27T05:08:52.250Z,99567.25
2022-08-27T05:11:20.881Z,99582.06
2022-08-27T05:13:48.539Z,99570.59
2022-08-27T05:16:21.812Z,99568.91
2022-08-27T05:18:50.606Z,99569.69
2022-08-27T05:21:32.029Z,99573.28
2022-08-27T05:24:01.744Z,99572.56
2022-08-27T05:26:30.053Z,99563.66
2022-08-27T05:29:00.302Z,99568.00
2022-08-27T05:31:29.523Z,99560.09
2022-08-27T05:33:57.723Z,99574.34
2022-08-27T05:36:33.682Z,99570.44
2022-08-27T05:39:02.808Z,99568.50
2022-08-27T05:41:34.218Z,99566.91
2022-08-27T05:44:24.153Z,99577.38
2022-08-27T05:46:53.714Z,99570.44
2022-08-27T05:49:20.969Z,99570.66
2022-08-27T05:51:48.951Z,99579.91
2022-08-27T05:54:19.610Z,99578.03
2022-08-27T05:56:50.111Z,99579.31
2022-08-27T05:59:36.777Z,99574.31
2022-08-27T06:02:04.432Z,99576.25
2022-08-27T06:04:31.371Z,99583.53
2022-08-27T06:06:58.501Z,99579.84
2022-08-27T06:09:29.074Z,99577.09
2022-08-27T06:11:58.209Z,99574.81
2022-08-27T06:14:27.076Z,99585.50
2022-08-27T06:16:54.298Z,99587.25
2022-08-27T06:19:22.185Z,99590.53
2022-08-27T06:22:00.455Z,99586.75
2022-08-27T06:24:29.270Z,99584.09
2022-08-27T06:26:57.602Z,99589.66
2022-08-27T06:29:25.280Z,99579.13
2022-08-27T06:31:53.178Z,99591.97
2022-08-27T06:34:20.166Z,99583.41
2022-08-27T06:36:47.139Z,99587.31
2022-08-27T06:39:16.948Z,99584.38
2022-08-27T06:41:44.313Z,99596.31
2022-08-27T06:44:15.216Z,99582.50
2022-08-27T06:46:43.603Z,99585.47
2022-08-27T06:49:12.264Z,99583.81
2022-08-27T06:51:41.039Z,99580.09
2022-08-27T06:54:10.592Z,99582.03
2022-08-27T06:56:38.028Z,99578.06
2022-08-27T06:59:11.578Z,99588.88
2022-08-27T07:01:42.712Z,99583.78
2022-08-27T07:04:13.131Z,99587.00
2022-08-27T07:06:40.763Z,99586.69
2022-08-27T07:09:08.926Z,99596.09
2022-08-27T07:11:36.713Z,99598.94
2022-08-27T07:14:05.780Z,99595.94
2022-08-27T07:16:35.774Z,99603.13
2022-08-27T07:19:05.802Z,99599.78
2022-08-27T07:21:34.476Z,99596.69
2022-08-27T07:24:05.195Z,99603.56
2022-08-27T07:26:35.021Z,99602.00
2022-08-27T07:29:03.660Z,99606.53
2022-08-27T07:31:30.622Z,99610.19
2022-08-27T07:33:57.664Z,99611.25
2022-08-27T07:36:25.724Z,99606.72
2022-08-27T07:38:59.303Z,99600.50
